Nyssa, Oregon
Current Conditions -  °F | °C
As of 12:53 AM on Wednesday 26 Nov 2014 (Local Time) from KONO Reporting Station
Clear Clear  
Wind Chill: 38°   Ceiling: Unl
Heat Index: 38°   Visibility: 8mi
Dew Point: 35°   Wind: 0mph
Humidity: 89%   Direction: NA
Pressure: 30.29"   Gusts: NA
Location:  43.88°N, 116.99°W
Report Text: KONO 260753Z AUTO 00000KT 8SM CLR 03/02 A3029 RMK AO2 SLP272 T00330017
Loading
Personal Weather Stations






























Interactive Weather Map New forecast layout! Learn more

10-Day Weather Forecast

Advertisements
Track Severe Weather on mobile